Time,TemperatureF,DewpointF,PressureIn,WindDirection,WindDirectionDegrees,WindSpeedMPH,WindSpeedGustMPH,Humidity,HourlyPrecipIn,Conditions,Clouds,dailyrainin,SoftwareType,DateUTC
2013-06-09 00:02:00,53.0,24.0,-100.00,ENE,59,4.0,7.0,32,0.00,,,-99.99,,2013-06-09 06:02:00,
2013-06-09 00:12:00,51.0,27.0,-100.00,ENE,72,4.0,7.0,38,0.00,,,-99.99,,2013-06-09 06:12:00,
2013-06-09 00:22:00,49.0,28.0,-100.00,NE,42,1.0,5.0,44,0.00,,,-99.99,,2013-06-09 06:22:00,
2013-06-09 00:32:00,48.0,28.0,-100.00,ENE,76,3.0,7.0,46,0.00,,,-99.99,,2013-06-09 06:32:00,
2013-06-09 00:42:00,49.0,28.0,-100.00,East,97,7.0,11.0,44,0.00,,,-99.99,,2013-06-09 06:42:00,
2013-06-09 00:52:00,50.0,28.0,-100.00,East,93,6.0,10.0,42,0.00,,,-99.99,,2013-06-09 06:52:00,
2013-06-09 01:02:00,48.0,28.0,-100.00,SSE,165,2.0,6.0,45,0.00,,,-99.99,,2013-06-09 07:02:00,
2013-06-09 01:12:00,49.0,28.0,-100.00,ESE,121,2.0,4.0,45,0.00,,,-99.99,,2013-06-09 07:12:00,
2013-06-09 01:22:00,48.0,29.0,-100.00,East,96,2.0,6.0,46,0.00,,,-99.99,,2013-06-09 07:22:00,
2013-06-09 01:32:00,48.0,29.0,-100.00,ESE,106,4.0,8.0,47,0.00,,,-99.99,,2013-06-09 07:32:00,
2013-06-09 01:42:00,50.0,28.0,-100.00,East,79,4.0,7.0,42,0.00,,,-99.99,,2013-06-09 07:42:00,
2013-06-09 01:52:00,47.0,28.0,-100.00,ESE,104,2.0,4.0,47,0.00,,,-99.99,,2013-06-09 07:52:00,
2013-06-09 02:02:00,46.0,28.0,-100.00,ESE,103,2.0,4.0,49,0.00,,,-99.99,,2013-06-09 08:02:00,
2013-06-09 02:12:00,47.0,29.0,-100.00,East,79,4.0,9.0,48,0.00,,,-99.99,,2013-06-09 08:12:00,
2013-06-09 02:22:00,47.0,28.0,-100.00,East,100,6.0,10.0,47,0.00,,,-99.99,,2013-06-09 08:22:00,
2013-06-09 02:32:00,49.0,29.0,-100.00,East,97,9.0,12.0,46,0.00,,,-99.99,,2013-06-09 08:32:00,
2013-06-09 02:42:00,49.0,29.0,-100.00,East,99,9.0,11.0,45,0.00,,,-99.99,,2013-06-09 08:42:00,
2013-06-09 02:53:00,50.0,28.0,-100.00,East,99,8.0,11.0,42,0.00,,,-99.99,,2013-06-09 08:53:00,
2013-06-09 03:02:00,50.0,28.0,-100.00,ESE,102,7.0,11.0,42,0.00,,,-99.99,,2013-06-09 09:02:00,
2013-06-09 03:12:00,50.0,28.0,-100.00,ESE,116,6.0,7.0,42,0.00,,,-99.99,,2013-06-09 09:12:00,
2013-06-09 03:22:00,50.0,28.0,-100.00,SE,126,4.0,7.0,42,0.00,,,-99.99,,2013-06-09 09:22:00,
2013-06-09 03:33:00,50.0,28.0,-100.00,ESE,114,6.0,7.0,43,0.00,,,-99.99,,2013-06-09 09:33:00,
2013-06-09 03:43:00,50.0,28.0,-100.00,ESE,119,4.0,6.0,43,0.00,,,-99.99,,2013-06-09 09:43:00,
2013-06-09 03:52:00,49.0,28.0,-100.00,SE,124,4.0,6.0,44,0.00,,,-99.99,,2013-06-09 09:52:00,
2013-06-09 04:03:00,50.0,28.0,-100.00,ESE,117,6.0,8.0,43,0.00,,,-99.99,,2013-06-09 10:03:00,
2013-06-09 04:12:00,49.0,28.0,-100.00,ESE,116,6.0,8.0,44,0.00,,,-99.99,,2013-06-09 10:12:00,
2013-06-09 04:23:00,50.0,28.0,-100.00,SE,137,6.0,7.0,43,0.00,,,-99.99,,2013-06-09 10:23:00,
2013-06-09 04:32:00,49.0,28.0,-100.00,SSE,161,6.0,9.0,44,0.00,,,-99.99,,2013-06-09 10:32:00,
2013-06-09 04:43:00,49.0,28.0,-100.00,SSE,168,7.0,10.0,44,0.00,,,-99.99,,2013-06-09 10:43:00,
2013-06-09 04:52:00,49.0,28.0,-100.00,South,178,7.0,10.0,44,0.00,,,-99.99,,2013-06-09 10:52:00,
2013-06-09 05:02:00,49.0,28.0,-100.00,South,174,7.0,9.0,45,0.00,,,-99.99,,2013-06-09 11:02:00,
2013-06-09 05:12:00,49.0,28.0,-100.00,South,176,7.0,9.0,45,0.00,,,-99.99,,2013-06-09 11:12:00,
2013-06-09 05:22:00,49.0,28.0,-100.00,South,181,7.0,10.0,44,0.00,,,-99.99,,2013-06-09 11:22:00,
2013-06-09 05:32:00,49.0,28.0,-100.00,South,181,7.0,10.0,44,0.00,,,-99.99,,2013-06-09 11:32:00,
2013-06-09 05:42:00,49.0,28.0,-100.00,South,179,5.0,7.0,43,0.00,,,-99.99,,2013-06-09 11:42:00,
2013-06-09 05:52:00,50.0,28.0,-100.00,ESE,123,4.0,7.0,42,0.00,,,-99.99,,2013-06-09 11:52:00,
2013-06-09 06:02:00,50.0,28.0,-100.00,SE,133,4.0,7.0,42,0.00,,,-99.99,,2013-06-09 12:02:00,
2013-06-09 06:22:00,52.0,29.0,-100.00,ESE,112,7.0,11.0,40,0.00,,,-99.99,,2013-06-09 12:22:00,
2013-06-09 06:32:00,52.0,29.0,-100.00,ESE,112,6.0,10.0,42,0.00,,,-99.99,,2013-06-09 12:32:00,
2013-06-09 06:42:00,53.0,30.0,-100.00,ESE,112,6.0,9.0,41,0.00,,,-99.99,,2013-06-09 12:42:00,
2013-06-09 06:52:00,54.0,30.0,-100.00,SE,138,3.0,6.0,40,0.00,,,-99.99,,2013-06-09 12:52:00,
2013-06-09 07:02:00,57.0,29.0,-100.00,SSE,158,9.0,14.0,34,0.00,,,-99.99,,2013-06-09 13:02:00,
2013-06-09 07:12:00,58.0,30.0,-100.00,SSE,155,11.0,14.0,34,0.00,,,-99.99,,2013-06-09 13:12:00,
2013-06-09 07:22:00,60.0,30.0,-100.00,SSE,157,12.0,16.0,32,0.00,,,-99.99,,2013-06-09 13:22:00,
2013-06-09 07:32:00,61.0,29.0,-100.00,SSE,158,12.0,17.0,30,0.00,,,-99.99,,2013-06-09 13:32:00,
2013-06-09 07:42:00,61.0,31.0,-100.00,SSE,157,14.0,19.0,31,0.00,,,-99.99,,2013-06-09 13:42:00,
2013-06-09 07:52:00,62.0,31.0,-100.00,SSE,162,12.0,17.0,31,0.00,,,-99.99,,2013-06-09 13:52:00,
2013-06-09 08:02:00,62.0,30.0,-100.00,SSE,164,14.0,20.0,30,0.00,,,-99.99,,2013-06-09 14:02:00,
2013-06-09 08:22:00,62.0,32.0,-100.00,SSE,164,16.0,22.0,32,0.00,,,-99.99,,2013-06-09 14:22:00,
2013-06-09 08:32:00,62.0,32.0,-100.00,SSE,160,16.0,21.0,32,0.00,,,-99.99,,2013-06-09 14:32:00,
2013-06-09 08:42:00,63.0,31.0,-100.00,SSE,168,17.0,23.0,30,0.00,,,-99.99,,2013-06-09 14:42:00,
2013-06-09 08:52:00,63.0,32.0,-100.00,South,171,19.0,24.0,30,0.00,,,-99.99,,2013-06-09 14:52:00,
2013-06-09 09:02:00,63.0,31.0,-100.00,SSE,165,20.0,26.0,30,-99.99,,,-99.99,,2013-06-09 15:02:00,
2013-06-09 09:12:00,63.0,32.0,-100.00,SSE,165,22.0,28.0,31,0.00,,,-99.99,,2013-06-09 15:12:00,
2013-06-09 09:22:00,63.0,33.0,-100.00,SSE,167,22.0,28.0,32,0.00,,,-99.99,,2013-06-09 15:22:00,
2013-06-09 09:33:00,63.0,33.0,-100.00,South,172,24.0,30.0,32,0.00,,,-99.99,,2013-06-09 15:33:00,
2013-06-09 09:43:00,64.0,34.0,-100.00,South,176,23.0,29.0,32,0.00,,,-99.99,,2013-06-09 15:43:00,
2013-06-09 09:53:00,65.0,33.0,-100.00,South,181,24.0,30.0,31,0.00,,,-99.99,,2013-06-09 15:53:00,
2013-06-09 10:03:00,65.0,33.0,-100.00,South,184,24.0,32.0,30,0.00,,,-99.99,,2013-06-09 16:03:00,
2013-06-09 10:13:00,65.0,34.0,-100.00,South,182,26.0,32.0,31,0.00,,,-99.99,,2013-06-09 16:13:00,
2013-06-09 10:23:00,67.0,34.0,-100.00,South,185,24.0,32.0,29,0.00,,,-99.99,,2013-06-09 16:23:00,
2013-06-09 10:33:00,66.0,33.0,-100.00,South,181,22.0,32.0,29,0.00,,,-99.99,,2013-06-09 16:33:00,
2013-06-09 10:42:00,67.0,33.0,-100.00,South,176,23.0,32.0,29,0.00,,,-99.99,,2013-06-09 16:42:00,
2013-06-09 10:53:00,67.0,34.0,-100.00,South,179,22.0,29.0,29,0.00,,,-99.99,,2013-06-09 16:53:00,
2013-06-09 11:02:00,67.0,33.0,-100.00,South,174,26.0,32.0,28,0.00,,,-99.99,,2013-06-09 17:02:00,
2013-06-09 11:12:00,69.0,33.0,-100.00,South,178,24.0,32.0,26,0.00,,,-99.99,,2013-06-09 17:12:00,
2013-06-09 11:22:00,68.0,32.0,-100.00,South,178,22.0,31.0,26,0.00,,,-99.99,,2013-06-09 17:22:00,
2013-06-09 11:32:00,68.0,31.0,-100.00,South,175,24.0,30.0,25,0.00,,,-99.99,,2013-06-09 17:32:00,
2013-06-09 11:42:00,69.0,31.0,-100.00,South,178,25.0,32.0,24,0.00,,,-99.99,,2013-06-09 17:42:00,
2013-06-09 11:52:00,70.0,32.0,-100.00,South,174,21.0,28.0,24,0.00,,,-99.99,,2013-06-09 17:52:00,
2013-06-09 12:02:00,70.0,32.0,-100.00,South,179,24.0,32.0,24,0.00,,,-99.99,,2013-06-09 18:02:00,
2013-06-09 12:12:00,71.0,31.0,-100.00,South,176,24.0,31.0,23,0.00,,,-99.99,,2013-06-09 18:12:00,
2013-06-09 12:21:00,71.0,32.0,-100.00,South,172,23.0,31.0,23,0.00,,,-99.99,,2013-06-09 18:21:00,
2013-06-09 12:32:00,72.0,31.0,-100.00,South,176,22.0,31.0,21,0.00,,,-99.99,,2013-06-09 18:32:00,
2013-06-09 12:42:00,72.0,32.0,-100.00,South,174,22.0,30.0,22,0.00,,,-99.99,,2013-06-09 18:42:00,
2013-06-09 12:52:00,72.0,30.0,-100.00,SSE,164,22.0,30.0,21,0.00,,,-99.99,,2013-06-09 18:52:00,
2013-06-09 13:02:00,73.0,31.0,-100.00,SSE,168,24.0,33.0,21,0.00,,,-99.99,,2013-06-09 19:02:00,
2013-06-09 13:12:00,73.0,31.0,-100.00,South,171,22.0,33.0,21,0.00,,,-99.99,,2013-06-09 19:12:00,
2013-06-09 13:22:00,74.0,31.0,-100.00,South,172,21.0,30.0,21,0.00,,,-99.99,,2013-06-09 19:22:00,
2013-06-09 13:32:00,74.0,32.0,-100.00,SSE,165,23.0,32.0,22,0.00,,,-99.99,,2013-06-09 19:32:00,
2013-06-09 13:42:00,74.0,31.0,-100.00,SSE,168,24.0,32.0,20,0.00,,,-99.99,,2013-06-09 19:42:00,
2013-06-09 13:52:00,75.0,32.0,-100.00,SSE,168,24.0,32.0,21,0.00,,,-99.99,,2013-06-09 19:52:00,
2013-06-09 14:02:00,75.0,31.0,-100.00,SSE,167,23.0,35.0,20,0.00,,,-99.99,,2013-06-09 20:02:00,
2013-06-09 14:12:00,76.0,32.0,-100.00,South,172,24.0,35.0,19,0.00,,,-99.99,,2013-06-09 20:12:00,
2013-06-09 14:22:00,75.0,31.0,-100.00,South,179,24.0,33.0,19,0.00,,,-99.99,,2013-06-09 20:22:00,
2013-06-09 14:32:00,77.0,31.0,-100.00,South,169,24.0,34.0,19,0.00,,,-99.99,,2013-06-09 20:32:00,
2013-06-09 14:42:00,77.0,31.0,-100.00,South,171,24.0,37.0,19,0.00,,,-99.99,,2013-06-09 20:42:00,
2013-06-09 14:52:00,78.0,30.0,-100.00,South,176,24.0,34.0,17,0.00,,,-99.99,,2013-06-09 20:52:00,
2013-06-09 15:02:00,78.0,29.0,-100.00,SSE,168,24.0,34.0,17,0.00,,,-99.99,,2013-06-09 21:02:00,
2013-06-09 15:12:00,78.0,31.0,-100.00,SSE,168,24.0,34.0,18,0.00,,,-99.99,,2013-06-09 21:12:00,
2013-06-09 15:22:00,79.0,29.0,-100.00,SSE,165,25.0,34.0,16,0.00,,,-99.99,,2013-06-09 21:22:00,
2013-06-09 15:33:00,78.0,29.0,-100.00,South,174,22.0,31.0,16,0.00,,,-99.99,,2013-06-09 21:33:00,
2013-06-09 15:43:00,78.0,29.0,-100.00,SSE,168,21.0,31.0,17,0.00,,,-99.99,,2013-06-09 21:43:00,
2013-06-09 15:53:00,79.0,28.0,-100.00,South,179,22.0,29.0,16,0.00,,,-99.99,,2013-06-09 21:53:00,
2013-06-09 16:02:00,79.0,26.0,-100.00,South,178,25.0,34.0,14,0.00,,,-99.99,,2013-06-09 22:02:00,
2013-06-09 16:13:00,79.0,26.0,-100.00,SSW,193,21.0,29.0,14,0.00,,,-99.99,,2013-06-09 22:13:00,
2013-06-09 16:23:00,80.0,28.0,-100.00,South,176,20.0,31.0,15,0.00,,,-99.99,,2013-06-09 22:23:00,
2013-06-09 16:33:00,80.0,27.0,-100.00,South,175,25.0,34.0,15,0.00,,,-99.99,,2013-06-09 22:33:00,
2013-06-09 16:52:00,80.0,26.0,-100.00,South,172,23.0,30.0,13,0.00,,,-99.99,,2013-06-09 22:52:00,
2013-06-09 17:02:00,81.0,26.0,-100.00,South,184,22.0,29.0,13,0.00,,,-99.99,,2013-06-09 23:02:00,
2013-06-09 17:12:00,80.0,27.0,-100.00,South,182,21.0,27.0,14,0.00,,,-99.99,,2013-06-09 23:12:00,
2013-06-09 17:22:00,81.0,26.0,-100.00,SSW,193,22.0,31.0,14,0.00,,,-99.99,,2013-06-09 23:22:00,
2013-06-09 17:32:00,81.0,24.0,-100.00,South,181,21.0,30.0,12,0.00,,,-99.99,,2013-06-09 23:32:00,
2013-06-09 17:42:00,81.0,26.0,-100.00,South,189,21.0,30.0,13,0.00,,,-99.99,,2013-06-09 23:42:00,
2013-06-09 17:52:00,80.0,26.0,-100.00,South,178,21.0,28.0,13,0.00,,,-99.99,,2013-06-09 23:52:00,
2013-06-09 18:02:00,80.0,27.0,-100.00,South,176,22.0,30.0,14,0.00,,,-99.99,,2013-06-10 00:02:00,
2013-06-09 18:12:00,80.0,26.0,-100.00,South,172,23.0,33.0,14,0.00,,,-99.99,,2013-06-10 00:12:00,
2013-06-09 18:22:00,79.0,26.0,-100.00,South,169,26.0,32.0,14,0.00,,,-99.99,,2013-06-10 00:22:00,
2013-06-09 18:32:00,80.0,26.0,-100.00,South,174,23.0,27.0,14,0.00,,,-99.99,,2013-06-10 00:32:00,
2013-06-09 18:52:00,80.0,27.0,-100.00,South,182,19.0,29.0,14,0.00,,,-99.99,,2013-06-10 00:52:00,
2013-06-09 19:02:00,77.0,27.0,-100.00,South,175,22.0,29.0,15,0.00,,,-99.99,,2013-06-10 01:02:00,
2013-06-09 19:12:00,78.0,27.0,-100.00,South,178,19.0,26.0,15,0.00,,,-99.99,,2013-06-10 01:12:00,
2013-06-09 19:22:00,78.0,27.0,-100.00,South,178,22.0,28.0,15,0.00,,,-99.99,,2013-06-10 01:22:00,
2013-06-09 19:32:00,-999.0,-99.9,-100.00,South,175,21.0,28.0,-999,-99.99,,,-99.99,,2013-06-10 01:32:00,
2013-06-09 19:42:00,78.0,27.0,-100.00,South,178,20.0,27.0,16,0.00,,,-99.99,,2013-06-10 01:42:00,
2013-06-09 19:52:00,77.0,27.0,-100.00,South,179,17.0,24.0,16,-99.99,,,-99.99,,2013-06-10 01:52:00,
2013-06-09 20:02:00,76.0,28.0,-100.00,South,179,17.0,24.0,17,0.00,,,-99.99,,2013-06-10 02:02:00,
2013-06-09 20:22:00,74.0,28.0,-100.00,South,175,15.0,21.0,18,0.00,,,-99.99,,2013-06-10 02:22:00,
2013-06-09 20:32:00,72.0,28.0,-100.00,South,171,13.0,18.0,20,0.00,,,-99.99,,2013-06-10 02:32:00,
2013-06-09 20:42:00,72.0,27.0,-100.00,South,176,12.0,15.0,19,0.00,,,-99.99,,2013-06-10 02:42:00,
2013-06-09 20:52:00,70.0,29.0,-100.00,SSE,167,12.0,18.0,21,0.00,,,-99.99,,2013-06-10 02:52:00,
2013-06-09 21:02:00,70.0,29.0,-100.00,SSE,154,12.0,19.0,22,0.00,,,-99.99,,2013-06-10 03:02:00,
2013-06-09 21:12:00,69.0,29.0,-100.00,SSE,154,12.0,16.0,22,0.00,,,-99.99,,2013-06-10 03:12:00,
2013-06-09 21:22:00,68.0,28.0,-100.00,SSE,152,11.0,14.0,22,0.00,,,-99.99,,2013-06-10 03:22:00,
2013-06-09 21:33:00,66.0,28.0,-100.00,SSE,161,10.0,13.0,24,-99.99,,,-99.99,,2013-06-10 03:33:00,
2013-06-09 21:43:00,67.0,28.0,-100.00,SSE,161,9.0,14.0,24,0.00,,,-99.99,,2013-06-10 03:43:00,
2013-06-09 21:53:00,66.0,28.0,-100.00,SSE,150,8.0,12.0,24,0.00,,,-99.99,,2013-06-10 03:53:00,
2013-06-09 22:03:00,67.0,27.0,-100.00,SSE,147,10.0,14.0,22,0.00,,,-99.99,,2013-06-10 04:03:00,
2013-06-09 22:12:00,69.0,27.0,-100.00,SE,143,12.0,17.0,21,0.00,,,-99.99,,2013-06-10 04:12:00,
2013-06-09 22:23:00,65.0,28.0,-100.00,SSE,168,11.0,17.0,25,0.00,,,-99.99,,2013-06-10 04:23:00,
2013-06-09 22:33:00,70.0,27.0,-100.00,SSE,151,14.0,20.0,20,0.00,,,-99.99,,2013-06-10 04:33:00,
2013-06-09 22:42:00,69.0,28.0,-100.00,SE,144,14.0,19.0,21,0.00,,,-99.99,,2013-06-10 04:42:00,
2013-06-09 22:52:00,69.0,28.0,-100.00,SSE,147,14.0,19.0,22,0.00,,,-99.99,,2013-06-10 04:52:00,
2013-06-09 23:02:00,67.0,29.0,-100.00,SSE,152,14.0,18.0,23,0.00,,,-99.99,,2013-06-10 05:02:00,
2013-06-09 23:12:00,66.0,29.0,-100.00,SSE,155,14.0,18.0,24,0.00,,,-99.99,,2013-06-10 05:12:00,
2013-06-09 23:22:00,64.0,29.0,-100.00,SSE,158,14.0,17.0,26,0.00,,,-99.99,,2013-06-10 05:22:00,
2013-06-09 23:32:00,64.0,29.0,-100.00,SSE,161,14.0,17.0,26,0.00,,,-99.99,,2013-06-10 05:32:00,
2013-06-09 23:42:00,65.0,29.0,-100.00,SSE,162,15.0,19.0,26,0.00,,,-99.99,,2013-06-10 05:42:00,
2013-06-09 23:52:00,64.0,29.0,-100.00,SSE,162,16.0,20.0,27,0.00,,,-99.99,,2013-06-10 05:52:00,